sensor_id;sensor_type;location;lat;lon;timestamp;pressure;altitude;pressure_sealevel;temperature;humidity
20424;BME280;10371;49.042;8.002;2022-09-09T00:02:16;99429.50;;;15.25;100.00
20424;BME280;10371;49.042;8.002;2022-09-09T00:03:26;99440.97;;;15.24;100.00
20424;BME280;10371;49.042;8.002;2022-09-09T00:04:31;99439.34;;;15.23;100.00
20424;BME280;10371;49.042;8.002;2022-09-09T00:05:41;99440.47;;;15.20;100.00
20424;BME280;10371;49.042;8.002;2022-09-09T00:06:57;99442.63;;;15.16;100.00
20424;BME280;10371;49.042;8.002;2022-09-09T00:08:02;99431.63;;;15.13;100.00
20424;BME280;10371;49.042;8.002;2022-09-09T00:09:12;99434.25;;;15.13;100.00
20424;BME280;10371;49.042;8.002;2022-09-09T00:10:27;99429.84;;;15.13;100.00
20424;BME280;10371;49.042;8.002;2022-09-09T00:11:40;99419.00;;;15.16;100.00
20424;BME280;10371;49.042;8.002;2022-09-09T00:12:51;99419.00;;;15.16;100.00
20424;BME280;10371;49.042;8.002;2022-09-09T00:13:59;99431.78;;;15.19;100.00
20424;BME280;10371;49.042;8.002;2022-09-09T00:15:07;99433.59;;;15.19;100.00
20424;BME280;10371;49.042;8.002;2022-09-09T00:16:24;99437.72;;;15.22;100.00
20424;BME280;10371;49.042;8.002;2022-09-09T00:20:01;99440.00;;;15.16;100.00
20424;BME280;10371;49.042;8.002;2022-09-09T00:21:09;99430.47;;;15.15;100.00
20424;BME280;10371;49.042;8.002;2022-09-09T00:22:21;99423.44;;;15.16;100.00
20424;BME280;10371;49.042;8.002;2022-09-09T00:23:31;99431.13;;;15.17;100.00
20424;BME280;10371;49.042;8.002;2022-09-09T00:24:42;99433.94;;;15.16;100.00
20424;BME280;10371;49.042;8.002;2022-09-09T00:25:54;99433.75;;;15.17;100.00
20424;BME280;10371;49.042;8.002;2022-09-09T00:27:08;99438.03;;;15.18;100.00
20424;BME280;10371;49.042;8.002;2022-09-09T00:28:23;99439.66;;;15.19;100.00
20424;BME280;10371;49.042;8.002;2022-09-09T00:29:36;99438.66;;;15.20;100.00
20424;BME280;10371;49.042;8.002;2022-09-09T00:30:40;99436.03;;;15.20;100.00
20424;BME280;10371;49.042;8.002;2022-09-09T00:31:41;99449.16;;;15.20;100.00
20424;BME280;10371;49.042;8.002;2022-09-09T00:32:43;99446.38;;;15.22;100.00
20424;BME280;10371;49.042;8.002;2022-09-09T00:33:45;99445.25;;;15.25;100.00
20424;BME280;10371;49.042;8.002;2022-09-09T00:34:54;99446.22;;;15.24;100.00
20424;BME280;10371;49.042;8.002;2022-09-09T00:36:00;99452.28;;;15.24;100.00
20424;BME280;10371;49.042;8.002;2022-09-09T00:37:02;99452.13;;;15.26;100.00
20424;BME280;10371;49.042;8.002;2022-09-09T00:38:16;99450.50;;;15.25;100.00
20424;BME280;10371;49.042;8.002;2022-09-09T00:39:32;99448.53;;;15.27;100.00
20424;BME280;10371;49.042;8.002;2022-09-09T00:41:03;99449.97;;;15.29;100.00
20424;BME280;10371;49.042;8.002;2022-09-09T00:42:17;99448.19;;;15.30;100.00
20424;BME280;10371;49.042;8.002;2022-09-09T00:43:29;99450.50;;;15.33;100.00
20424;BME280;10371;49.042;8.002;2022-09-09T00:44:35;99442.44;;;15.34;100.00
20424;BME280;10371;49.042;8.002;2022-09-09T00:48:10;99446.53;;;15.37;100.00
20424;BME280;10371;49.042;8.002;2022-09-09T00:50:43;99446.88;;;15.42;100.00
20424;BME280;10371;49.042;8.002;2022-09-09T00:54:27;99448.03;;;15.48;100.00
20424;BME280;10371;49.042;8.002;2022-09-09T00:57:52;99449.50;;;15.50;100.00
20424;BME280;10371;49.042;8.002;2022-09-09T01:00:30;99458.84;;;15.53;100.00
20424;BME280;10371;49.042;8.002;2022-09-09T01:01:31;99467.53;;;15.53;100.00
20424;BME280;10371;49.042;8.002;2022-09-09T01:02:59;99471.78;;;15.54;100.00
20424;BME280;10371;49.042;8.002;2022-09-09T01:04:05;99467.53;;;15.53;100.00
20424;BME280;10371;49.042;8.002;2022-09-09T01:05:40;99469.16;;;15.54;100.00
20424;BME280;10371;49.042;8.002;2022-09-09T01:06:38;99470.00;;;15.55;100.00
20424;BME280;10371;49.042;8.002;2022-09-09T01:07:40;99457.03;;;15.53;100.00
20424;BME280;10371;49.042;8.002;2022-09-09T01:09:10;99460.66;;;15.52;100.00
20424;BME280;10371;49.042;8.002;2022-09-09T01:10:52;99458.84;;;15.53;100.00
20424;BME280;10371;49.042;8.002;2022-09-09T01:12:16;99458.66;;;15.54;100.00
20424;BME280;10371;49.042;8.002;2022-09-09T01:13:24;99454.25;;;15.55;100.00
20424;BME280;10371;49.042;8.002;2022-09-09T01:15:35;99449.84;;;15.55;100.00
20424;BME280;10371;49.042;8.002;2022-09-09T01:16:37;99450.31;;;15.59;100.00
20424;BME280;10371;49.042;8.002;2022-09-09T01:18:14;99451.47;;;15.64;100.00
20424;BME280;10371;49.042;8.002;2022-09-09T01:19:27;99455.06;;;15.63;100.00
20424;BME280;10371;49.042;8.002;2022-09-09T01:24:38;99456.03;;;15.62;100.00
20424;BME280;10371;49.042;8.002;2022-09-09T01:26:12;99459.34;;;15.64;100.00
20424;BME280;10371;49.042;8.002;2022-09-09T01:27:15;99461.63;;;15.59;100.00
20424;BME280;10371;49.042;8.002;2022-09-09T01:28:22;99459.66;;;15.61;100.00
20424;BME280;10371;49.042;8.002;2022-09-09T01:29:25;99453.41;;;15.62;100.00
20424;BME280;10371;49.042;8.002;2022-09-09T01:30:26;99444.72;;;15.62;100.00
20424;BME280;10371;49.042;8.002;2022-09-09T01:32:56;99445.88;;;15.59;100.00
20424;BME280;10371;49.042;8.002;2022-09-09T01:33:58;99440.63;;;15.59;100.00
20424;BME280;10371;49.042;8.002;2022-09-09T01:34:59;99437.84;;;15.61;100.00
20424;BME280;10371;49.042;8.002;2022-09-09T01:37:10;99432.44;;;15.54;100.00
20424;BME280;10371;49.042;8.002;2022-09-09T01:38:13;99428.03;;;15.55;100.00
20424;BME280;10371;49.042;8.002;2022-09-09T01:39:14;99430.81;;;15.53;100.00
20424;BME280;10371;49.042;8.002;2022-09-09T01:40:14;99435.38;;;15.51;100.00
20424;BME280;10371;49.042;8.002;2022-09-09T01:41:15;99427.53;;;15.51;100.00
20424;BME280;10371;49.042;8.002;2022-09-09T01:42:16;99430.31;;;15.50;100.00
20424;BME280;10371;49.042;8.002;2022-09-09T01:43:16;99428.66;;;15.49;100.00
20424;BME280;10371;49.042;8.002;2022-09-09T01:44:18;99431.47;;;15.47;100.00
20424;BME280;10371;49.042;8.002;2022-09-09T01:45:45;99430.47;;;15.48;100.00
20424;BME280;10371;49.042;8.002;2022-09-09T01:46:47;99425.41;;;15.47;100.00
20424;BME280;10371;49.042;8.002;2022-09-09T01:47:48;99426.03;;;15.49;100.00
20424;BME280;10371;49.042;8.002;2022-09-09T01:48:51;99430.47;;;15.48;100.00
20424;BME280;10371;49.042;8.002;2022-09-09T01:49:52;99426.88;;;15.49;100.00
20424;BME280;10371;49.042;8.002;2022-09-09T01:50:52;99429.50;;;15.49;100.00
20424;BME280;10371;49.042;8.002;2022-09-09T01:51:55;99432.28;;;15.48;100.00
20424;BME280;10371;49.042;8.002;2022-09-09T01:52:59;99427.03;;;15.48;100.00
20424;BME280;10371;49.042;8.002;2022-09-09T01:54:02;99429.84;;;15.46;100.00
20424;BME280;10371;49.042;8.002;2022-09-09T01:55:04;99428.19;;;15.45;100.00
20424;BME280;10371;49.042;8.002;2022-09-09T01:56:40;99430.66;;;15.47;100.00
20424;BME280;10371;49.042;8.002;2022-09-09T01:57:57;99433.28;;;15.47;100.00
20424;BME280;10371;49.042;8.002;2022-09-09T02:00:21;99429.00;;;15.46;100.00
20424;BME280;10371;49.042;8.002;2022-09-09T02:01:53;99425.56;;;15.45;100.00
20424;BME280;10371;49.042;8.002;2022-09-09T02:03:05;99425.75;;;15.44;100.00
20424;BME280;10371;49.042;8.002;2022-09-09T02:04:25;99420.78;;;15.40;100.00
20424;BME280;10371;49.042;8.002;2022-09-09T02:05:38;99431.13;;;15.42;100.00
20424;BME280;10371;49.042;8.002;2022-09-09T02:06:42;99432.94;;;15.41;100.00
20424;BME280;10371;49.042;8.002;2022-09-09T02:07:48;99438.00;;;15.43;100.00
20424;BME280;10371;49.042;8.002;2022-09-09T02:08:52;99439.81;;;15.42;100.00
20424;BME280;10371;49.042;8.002;2022-09-09T02:10:05;99439.81;;;15.42;100.00
20424;BME280;10371;49.042;8.002;2022-09-09T02:11:13;99445.41;;;15.39;100.00
20424;BME280;10371;49.042;8.002;2022-09-09T02:12:16;99441.63;;;15.42;100.00
20424;BME280;10371;49.042;8.002;2022-09-09T02:13:20;99442.63;;;15.41;100.00
20424;BME280;10371;49.042;8.002;2022-09-09T02:14:25;99446.41;;;15.38;100.00
20424;BME280;10371;49.042;8.002;2022-09-09T02:15:34;99436.22;;;15.35;100.00
20424;BME280;10371;49.042;8.002;2022-09-09T02:16:54;99436.72;;;15.39;100.00
20424;BME280;10371;49.042;8.002;2022-09-09T02:17:58;99436.06;;;15.37;100.00
20424;BME280;10371;49.042;8.002;2022-09-09T02:19:07;99439.34;;;15.39;100.00
20424;BME280;10371;49.042;8.002;2022-09-09T02:20:12;99435.72;;;15.40;100.00
20424;BME280;10371;49.042;8.002;2022-09-09T02:21:15;99436.72;;;15.39;100.00
20424;BME280;10371;49.042;8.002;2022-09-09T02:22:19;99434.91;;;15.39;100.00
20424;BME280;10371;49.042;8.002;2022-09-09T02:23:22;99436.72;;;15.39;100.00
20424;BME280;10371;49.042;8.002;2022-09-09T02:24:22;99444.59;;;15.39;100.00
20424;BME280;10371;49.042;8.002;2022-09-09T02:25:26;99440.16;;;15.39;100.00
20424;BME280;10371;49.042;8.002;2022-09-09T02:26:28;99434.25;;;15.37;100.00
20424;BME280;10371;49.042;8.002;2022-09-09T02:27:29;99430.81;;;15.37;100.00
20424;BME280;10371;49.042;8.002;2022-09-09T02:28:31;99436.88;;;15.37;100.00
20424;BME280;10371;49.042;8.002;2022-09-09T02:29:40;99437.88;;;15.36;100.00
20424;BME280;10371;49.042;8.002;2022-09-09T02:30:42;99436.38;;;15.34;100.00
20424;BME280;10371;49.042;8.002;2022-09-09T02:31:47;99441.97;;;15.31;100.00
20424;BME280;10371;49.042;8.002;2022-09-09T02:32:52;99433.44;;;15.29;100.00
20424;BME280;10371;49.042;8.002;2022-09-09T02:34:01;99429.31;;;15.26;100.00
20424;BME280;10371;49.042;8.002;2022-09-09T02:35:07;99430.31;;;15.25;100.00
20424;BME280;10371;49.042;8.002;2022-09-09T02:36:10;99427.56;;;15.27;100.00
20424;BME280;10371;49.042;8.002;2022-09-09T02:37:12;99426.06;;;15.24;100.00
20424;BME280;10371;49.042;8.002;2022-09-09T02:38:16;99424.59;;;15.22;100.00
20424;BME280;10371;49.042;8.002;2022-09-09T02:39:17;99430.31;;;15.25;100.00
20424;BME280;10371;49.042;8.002;2022-09-09T02:40:17;99424.41;;;15.23;100.00
20424;BME280;10371;49.042;8.002;2022-09-09T02:41:24;99423.59;;;15.23;100.00
20424;BME280;10371;49.042;8.002;2022-09-09T02:42:26;99418.69;;;15.19;100.00
20424;BME280;10371;49.042;8.002;2022-09-09T02:43:31;99420.50;;;15.19;100.00
20424;BME280;10371;49.042;8.002;2022-09-09T02:44:31;99426.69;;;15.18;100.00
20424;BME280;10371;49.042;8.002;2022-09-09T02:51:18;99439.50;;;15.05;100.00
20424;BME280;10371;49.042;8.002;2022-09-09T02:54:39;99440.63;;;15.02;100.00
20424;BME280;10371;49.042;8.002;2022-09-09T02:55:55;99435.38;;;15.02;100.00
20424;BME280;10371;49.042;8.002;2022-09-09T02:57:11;99434.41;;;15.03;100.00
20424;BME280;10371;49.042;8.002;2022-09-09T02:58:15;99442.13;;;15.05;100.00
20424;BME280;10371;49.042;8.002;2022-09-09T02:59:20;99435.22;;;15.04;100.00
20424;BME280;10371;49.042;8.002;2022-09-09T03:00:27;99433.59;;;15.03;100.00
20424;BME280;10371;49.042;8.002;2022-09-09T03:01:28;99439.63;;;15.03;100.00
20424;BME280;10371;49.042;8.002;2022-09-09T03:02:28;99436.22;;;15.03;100.00
20424;BME280;10371;49.042;8.002;2022-09-09T03:03:28;99438.50;;;15.06;100.00
20424;BME280;10371;49.042;8.002;2022-09-09T03:04:29;99435.72;;;15.07;100.00
20424;BME280;10371;49.042;8.002;2022-09-09T03:05:31;99445.38;;;15.07;100.00
20424;BME280;10371;49.042;8.002;2022-09-09T03:06:31;99441.78;;;15.08;100.00
20424;BME280;10371;49.042;8.002;2022-09-09T03:07:32;99448.19;;;15.13;100.00
20424;BME280;10371;49.042;8.002;2022-09-09T03:08:33;99446.38;;;15.14;100.00
20424;BME280;10371;49.042;8.002;2022-09-09T03:09:33;99443.44;;;15.17;100.00
20424;BME280;10371;49.042;8.002;2022-09-09T03:10:34;99449.34;;;15.19;100.00
20424;BME280;10371;49.042;8.002;2022-09-09T03:11:35;99451.16;;;15.18;100.00
20424;BME280;10371;49.042;8.002;2022-09-09T03:12:35;99438.03;;;15.18;100.00
20424;BME280;10371;49.042;8.002;2022-09-09T03:13:35;99450.81;;;15.22;100.00
20424;BME280;10371;49.042;8.002;2022-09-09T03:14:37;99452.44;;;15.23;100.00
20424;BME280;10371;49.042;8.002;2022-09-09T03:15:38;99447.06;;;15.24;100.00
20424;BME280;10371;49.042;8.002;2022-09-09T03:16:38;99446.88;;;15.26;100.00
20424;BME280;10371;49.042;8.002;2022-09-09T03:17:38;99451.78;;;15.29;100.00
20424;BME280;10371;49.042;8.002;2022-09-09T03:18:39;99451.47;;;15.32;100.00
20424;BME280;10371;49.042;8.002;2022-09-09T03:19:39;99457.69;;;15.31;100.00
20424;BME280;10371;49.042;8.002;2022-09-09T03:20:40;99455.75;;;15.33;100.00
20424;BME280;10371;49.042;8.002;2022-09-09T03:21:42;99452.44;;;15.31;100.00
20424;BME280;10371;49.042;8.002;2022-09-09T03:22:42;99456.88;;;15.30;100.00
20424;BME280;10371;49.042;8.002;2022-09-09T03:23:45;99448.34;;;15.28;100.00
20424;BME280;10371;49.042;8.002;2022-09-09T03:24:45;99453.78;;;15.27;100.00
20424;BME280;10371;49.042;8.002;2022-09-09T03:25:47;99454.75;;;15.26;100.00
20424;BME280;10371;49.042;8.002;2022-09-09T03:26:48;99447.88;;;15.25;100.00
20424;BME280;10371;49.042;8.002;2022-09-09T03:27:51;99450.97;;;15.28;100.00
20424;BME280;10371;49.042;8.002;2022-09-09T03:28:54;99441.63;;;15.26;100.00
20424;BME280;10371;49.042;8.002;2022-09-09T03:29:54;99438.66;;;15.29;100.00
20424;BME280;10371;49.042;8.002;2022-09-09T03:30:58;99444.72;;;15.29;100.00
20424;BME280;10371;49.042;8.002;2022-09-09T03:31:59;99442.94;;;15.30;100.00
20424;BME280;10371;49.042;8.002;2022-09-09T03:32:59;99443.91;;;15.29;100.00
20424;BME280;10371;49.042;8.002;2022-09-09T03:33:59;99452.31;;;15.32;100.00
20424;BME280;10371;49.042;8.002;2022-09-09T03:35:00;99441.97;;;15.31;100.00
20424;BME280;10371;49.042;8.002;2022-09-09T03:36:00;99448.84;;;15.32;100.00
20424;BME280;10371;49.042;8.002;2022-09-09T03:37:01;99448.19;;;15.30;100.00
20424;BME280;10371;49.042;8.002;2022-09-09T03:38:01;99451.78;;;15.29;100.00
20424;BME280;10371;49.042;8.002;2022-09-09T03:39:02;99433.44;;;15.29;100.00
20424;BME280;10371;49.042;8.002;2022-09-09T03:40:03;99444.72;;;15.29;100.00
20424;BME280;10371;49.042;8.002;2022-09-09T03:41:04;99445.56;;;15.30;100.00
20424;BME280;10371;49.042;8.002;2022-09-09T03:42:06;99438.66;;;15.29;100.00
20424;BME280;10371;49.042;8.002;2022-09-09T03:43:07;99447.34;;;15.29;100.00
20424;BME280;10371;49.042;8.002;2022-09-09T03:44:07;99437.72;;;15.30;100.00
20424;BME280;10371;49.042;8.002;2022-09-09T03:45:08;99439.66;;;15.28;100.00
20424;BME280;10371;49.042;8.002;2022-09-09T03:46:10;99450.97;;;15.28;100.00
20424;BME280;10371;49.042;8.002;2022-09-09T03:47:10;99445.25;;;15.25;100.00
20424;BME280;10371;49.042;8.002;2022-09-09T03:48:11;99444.25;;;15.26;100.00
20424;BME280;10371;49.042;8.002;2022-09-09T03:49:11;99426.88;;;15.25;100.00
20424;BME280;10371;49.042;8.002;2022-09-09T03:50:12;99448.69;;;15.25;100.00
20424;BME280;10371;49.042;8.002;2022-09-09T03:51:13;99442.94;;;15.22;100.00
20424;BME280;10371;49.042;8.002;2022-09-09T03:52:14;99443.28;;;15.18;100.00
20424;BME280;10371;49.042;8.002;2022-09-09T03:53:16;99437.38;;;15.16;100.00
20424;BME280;10371;49.042;8.002;2022-09-09T03:54:17;99450.81;;;15.13;100.00
20424;BME280;10371;49.042;8.002;2022-09-09T03:55:17;99445.88;;;15.10;100.00
20424;BME280;10371;49.042;8.002;2022-09-09T03:56:17;99452.75;;;15.11;100.00
20424;BME280;10371;49.042;8.002;2022-09-09T03:57:18;99450.28;;;15.10;100.00
20424;BME280;10371;49.042;8.002;2022-09-09T03:58:18;99445.22;;;15.08;100.00
20424;BME280;10371;49.042;8.002;2022-09-09T03:59:19;99450.28;;;15.10;100.00
20424;BME280;10371;49.042;8.002;2022-09-09T04:00:20;99447.84;;;15.08;100.00
20424;BME280;10371;49.042;8.002;2022-09-09T04:01:20;99448.66;;;15.09;100.00
20424;BME280;10371;49.042;8.002;2022-09-09T04:02:21;99442.94;;;15.05;100.00
20424;BME280;10371;49.042;8.002;2022-09-09T04:03:22;99448.00;;;15.07;100.00
20424;BME280;10371;49.042;8.002;2022-09-09T04:04:24;99444.06;;;15.03;100.00
20424;BME280;10371;49.042;8.002;2022-09-09T04:05:26;99442.25;;;15.03;100.00
20424;BME280;10371;49.042;8.002;2022-09-09T04:06:27;99450.13;;;15.03;100.00
20424;BME280;10371;49.042;8.002;2022-09-09T04:07:27;99440.97;;;14.99;100.00
20424;BME280;10371;49.042;8.002;2022-09-09T04:08:28;99446.03;;;15.01;100.00
20424;BME280;10371;49.042;8.002;2022-09-09T04:09:31;99450.44;;;15.00;100.00
20424;BME280;10371;49.042;8.002;2022-09-09T04:10:31;99448.50;;;15.02;100.00
20424;BME280;10371;49.042;8.002;2022-09-09T04:11:31;99450.13;;;15.03;100.00
20424;BME280;10371;49.042;8.002;2022-09-09T04:12:32;99448.66;;;15.01;100.00
20424;BME280;10371;49.042;8.002;2022-09-09T04:13:33;99452.09;;;15.01;100.00
20424;BME280;10371;49.042;8.002;2022-09-09T04:14:34;99447.69;;;15.02;100.00
20424;BME280;10371;49.042;8.002;2022-09-09T04:15:34;99451.25;;;15.01;100.00
20424;BME280;10371;49.042;8.002;2022-09-09T04:16:35;99452.25;;;15.00;100.00
20424;BME280;10371;49.042;8.002;2022-09-09T04:17:37;99452.94;;;15.02;100.00
20424;BME280;10371;49.042;8.002;2022-09-09T04:18:37;99453.22;;;14.98;100.00
20424;BME280;10371;49.042;8.002;2022-09-09T04:19:38;99454.88;;;15.00;100.00
20424;BME280;10371;49.042;8.002;2022-09-09T04:20:38;99450.59;;;14.98;100.00
20424;BME280;10371;49.042;8.002;2022-09-09T04:21:41;99458.31;;;15.00;100.00
20424;BME280;10371;49.042;8.002;2022-09-09T04:22:42;99447.16;;;14.98;100.00
20424;BME280;10371;49.042;8.002;2022-09-09T04:23:42;99454.06;;;14.99;100.00
20424;BME280;10371;49.042;8.002;2022-09-09T04:24:42;99456.03;;;14.97;100.00
20424;BME280;10371;49.042;8.002;2022-09-09T04:25:51;99445.34;;;14.98;100.00
20424;BME280;10371;49.042;8.002;2022-09-09T04:26:51;99450.44;;;15.00;100.00
20424;BME280;10371;49.042;8.002;2022-09-09T04:27:56;99448.81;;;14.99;100.00
20424;BME280;10371;49.042;8.002;2022-09-09T04:28:57;99454.88;;;15.00;100.00
20424;BME280;10371;49.042;8.002;2022-09-09T04:29:57;99447.50;;;14.95;100.00
20424;BME280;10371;49.042;8.002;2022-09-09T04:31:27;99449.97;;;14.96;100.00
20424;BME280;10371;49.042;8.002;2022-09-09T04:32:26;99451.09;;;14.94;100.00
20424;BME280;10371;49.042;8.002;2022-09-09T04:33:27;99452.06;;;14.93;100.00
20424;BME280;10371;49.042;8.002;2022-09-09T04:34:27;99455.69;;;14.92;100.00
20424;BME280;10371;49.042;8.002;2022-09-09T04:35:28;99453.22;;;14.90;100.00
20424;BME280;10371;49.042;8.002;2022-09-09T04:36:29;99455.34;;;14.95;100.00
20424;BME280;10371;49.042;8.002;2022-09-09T04:37:29;99452.06;;;14.93;100.00
20424;BME280;10371;49.042;8.002;2022-09-09T04:38:29;99454.38;;;14.96;100.00
20424;BME280;10371;49.042;8.002;2022-09-09T04:39:30;99461.25;;;14.97;100.00
20424;BME280;10371;49.042;8.002;2022-09-09T04:40:31;99456.84;;;14.97;100.00
20424;BME280;10371;49.042;8.002;2022-09-09T04:41:31;99462.91;;;14.98;100.00
20424;BME280;10371;49.042;8.002;2022-09-09T04:42:37;99454.06;;;14.99;100.00
20424;BME280;10371;49.042;8.002;2022-09-09T04:43:38;99462.91;;;14.98;100.00
20424;BME280;10371;49.042;8.002;2022-09-09T04:44:39;99460.94;;;15.00;100.00
20424;BME280;10371;49.042;8.002;2022-09-09T04:45:44;99460.13;;;15.00;100.00
20424;BME280;10371;49.042;8.002;2022-09-09T04:46:46;99461.09;;;14.98;100.00
20424;BME280;10371;49.042;8.002;2022-09-09T04:47:47;99467.19;;;14.99;100.00
20424;BME280;10371;49.042;8.002;2022-09-09T04:48:48;99461.25;;;14.97;100.00
20424;BME280;10371;49.042;8.002;2022-09-09T04:49:49;99464.69;;;14.97;100.00
20424;BME280;10371;49.042;8.002;2022-09-09T04:51:00;99463.41;;;14.93;100.00
20424;BME280;10371;49.042;8.002;2022-09-09T04:52:02;99454.06;;;14.91;100.00
20424;BME280;10371;49.042;8.002;2022-09-09T04:53:03;99459.28;;;14.91;100.00
20424;BME280;10371;49.042;8.002;2022-09-09T04:54:04;99465.66;;;14.88;100.00
20424;BME280;10371;49.042;8.002;2022-09-09T04:55:06;99463.38;;;14.85;100.00
20424;BME280;10371;49.042;8.002;2022-09-09T04:56:10;99467.28;;;14.81;100.00
20424;BME280;10371;49.042;8.002;2022-09-09T04:57:11;99456.44;;;14.76;100.00
20424;BME280;10371;49.042;8.002;2022-09-09T04:58:11;99462.00;;;14.73;100.00
20424;BME280;10371;49.042;8.002;2022-09-09T04:59:11;99459.88;;;14.68;100.00
20424;BME280;10371;49.042;8.002;2022-09-09T05:00:12;99467.91;;;14.67;100.00
20424;BME280;10371;49.042;8.002;2022-09-09T05:01:18;99468.22;;;14.64;100.00
20424;BME280;10371;49.042;8.002;2022-09-09T05:02:19;99465.75;;;14.62;100.00
20424;BME280;10371;49.042;8.002;2022-09-09T05:03:19;99467.06;;;14.58;100.00
20424;BME280;10371;49.042;8.002;2022-09-09T05:04:19;99465.72;;;14.54;100.00
20424;BME280;10371;49.042;8.002;2022-09-09T05:05:19;99472.09;;;14.51;100.00
20424;BME280;10371;49.042;8.002;2022-09-09T05:06:21;99472.38;;;14.48;100.00
20424;BME280;10371;49.042;8.002;2022-09-09T05:07:21;99475.16;;;14.47;100.00
20424;BME280;10371;49.042;8.002;2022-09-09T05:08:22;99477.91;;;14.45;100.00
20424;BME280;10371;49.042;8.002;2022-09-09T05:09:22;99479.72;;;14.45;100.00
20424;BME280;10371;49.042;8.002;2022-09-09T05:10:23;99488.56;;;14.44;100.00
20424;BME280;10371;49.042;8.002;2022-09-09T05:11:25;99486.28;;;14.41;100.00
20424;BME280;10371;49.042;8.002;2022-09-09T05:12:26;99489.22;;;14.38;100.00
20424;BME280;10371;49.042;8.002;2022-09-09T05:13:27;99487.53;;;14.37;100.00
20424;BME280;10371;49.042;8.002;2022-09-09T05:14:28;99487.72;;;14.35;100.00
20424;BME280;10371;49.042;8.002;2022-09-09T05:15:28;99476.22;;;14.28;100.00
20424;BME280;10371;49.042;8.002;2022-09-09T05:16:29;99470.84;;;14.29;100.00
20424;BME280;10371;49.042;8.002;2022-09-09T05:17:30;99472.78;;;14.27;100.00
20424;BME280;10371;49.042;8.002;2022-09-09T05:18:30;99476.38;;;14.26;100.00
20424;BME280;10371;49.042;8.002;2022-09-09T05:19:30;99480.47;;;14.29;100.00
20424;BME280;10371;49.042;8.002;2022-09-09T05:20:31;99475.22;;;14.29;100.00
20424;BME280;10371;49.042;8.002;2022-09-09T05:21:31;99488.31;;;14.29;100.00
20424;BME280;10371;49.042;8.002;2022-09-09T05:22:32;99483.75;;;14.31;100.00
20424;BME280;10371;49.042;8.002;2022-09-09T05:23:33;99482.63;;;14.34;100.00
20424;BME280;10371;49.042;8.002;2022-09-09T05:24:33;99484.56;;;14.31;100.00
20424;BME280;10371;49.042;8.002;2022-09-09T05:25:34;99483.09;;;14.29;100.00
20424;BME280;10371;49.042;8.002;2022-09-09T05:26:34;99489.66;;;14.33;100.00
20424;BME280;10371;49.042;8.002;2022-09-09T05:27:34;99487.19;;;14.31;100.00
20424;BME280;10371;49.042;8.002;2022-09-09T05:28:35;99487.19;;;14.31;100.00
20424;BME280;10371;49.042;8.002;2022-09-09T05:29:35;99488.84;;;14.33;100.00
20424;BME280;10371;49.042;8.002;2022-09-09T05:30:36;99481.31;;;14.29;100.00
20424;BME280;10371;49.042;8.002;2022-09-09T05:31:36;99486.38;;;14.31;100.00
20424;BME280;10371;49.042;8.002;2022-09-09T05:32:36;99488.69;;;14.34;100.00
20424;BME280;10371;49.042;8.002;2022-09-09T05:33:37;99490.47;;;14.34;100.00
20424;BME280;10371;49.042;8.002;2022-09-09T05:34:40;99488.03;;;14.32;100.00
20424;BME280;10371;49.042;8.002;2022-09-09T05:35:40;99485.09;;;14.35;100.00
20424;BME280;10371;49.042;8.002;2022-09-09T05:36:40;99486.72;;;14.36;100.00
20424;BME280;10371;49.042;8.002;2022-09-09T05:37:41;99484.63;;;14.40;100.00
20424;BME280;10371;49.042;8.002;2022-09-09T05:38:42;99491.19;;;14.44;100.00
20424;BME280;10371;49.042;8.002;2022-09-09T05:39:42;99495.66;;;14.51;100.00
20424;BME280;10371;49.042;8.002;2022-09-09T05:40:48;99493.91;;;14.60;100.00
20424;BME280;10371;49.042;8.002;2022-09-09T05:41:50;99500.69;;;14.71;100.00
20424;BME280;10371;49.042;8.002;2022-09-09T05:42:51;99496.28;;;14.80;100.00
20424;BME280;10371;49.042;8.002;2022-09-09T05:43:51;99507.44;;;14.90;100.00
20424;BME280;10371;49.042;8.002;2022-09-09T05:44:51;99497.63;;;15.00;100.00
20424;BME280;10371;49.042;8.002;2022-09-09T05:46:13;99502.25;;;15.06;100.00
20424;BME280;10371;49.042;8.002;2022-09-09T05:47:14;99497.00;;;15.06;100.00
20424;BME280;10371;49.042;8.002;2022-09-09T05:48:15;99500.28;;;15.08;100.00
20424;BME280;10371;49.042;8.002;2022-09-09T05:49:15;99499.16;;;15.11;100.00
20424;BME280;10371;49.042;8.002;2022-09-09T05:50:16;99501.13;;;15.17;100.00
20424;BME280;10371;49.042;8.002;2022-09-09T05:51:21;99500.97;;;15.18;100.00
20424;BME280;10371;49.042;8.002;2022-09-09T05:52:22;99498.97;;;15.20;100.00
20424;BME280;10371;49.042;8.002;2022-09-09T05:53:23;99501.94;;;15.26;100.00
20424;BME280;10371;49.042;8.002;2022-09-09T05:54:24;99508.84;;;15.35;100.00
20424;BME280;10371;49.042;8.002;2022-09-09T05:55:24;99512.47;;;15.42;100.00
20424;BME280;10371;49.042;8.002;2022-09-09T05:56:27;99506.56;;;15.48;100.00
20424;BME280;10371;49.042;8.002;2022-09-09T05:57:28;99509.19;;;15.56;100.00
20424;BME280;10371;49.042;8.002;2022-09-09T05:58:29;99516.41;;;15.62;100.00
20424;BME280;10371;49.042;8.002;2022-09-09T05:59:29;99518.41;;;15.69;100.00
20424;BME280;10371;49.042;8.002;2022-09-09T06:00:30;99514.13;;;15.76;100.00
20424;BME280;10371;49.042;8.002;2022-09-09T06:01:33;99525.13;;;15.79;100.00
20424;BME280;10371;49.042;8.002;2022-09-09T06:02:34;99519.72;;;15.89;100.00
20424;BME280;10371;49.042;8.002;2022-09-09T06:03:39;99522.16;;;15.99;100.00
20424;BME280;10371;49.042;8.002;2022-09-09T06:04:40;99513.97;;;16.02;100.00
20424;BME280;10371;49.042;8.002;2022-09-09T06:05:40;99516.06;;;16.06;100.00
20424;BME280;10371;49.042;8.002;2022-09-09T06:06:40;99518.03;;;16.13;100.00
20424;BME280;10371;49.042;8.002;2022-09-09T06:07:42;99521.78;;;16.18;100.00